Time;durP1;ratioP1;P1;durP2;ratioP2;P2;SDS_P1;SDS_P2;PMS_P1;PMS_P2;Temp;Humidity;BMP_temperature;BMP_pressure;BME280_temperature;BME280_humidity;BME280_pressure;Samples;Min_cycle;Max_cycle;Signal;HPM_P1;HPM_P2
2023/10/02 05:11:26;;;;;;;;;31.67;26.00;;;;;;;;6295004;22;75069;-71
2023/10/02 05:16:40;;;;;;;;;24.00;22.00;;;;;;;;6309099;22;45160;-71
2023/10/02 05:19:09;;;;;;;;;28.33;24.67;;;;;;;;6308250;22;45380;-71
2023/10/02 05:21:49;;;;;;;;;31.00;26.67;;;;;;;;6280831;22;47139;-71
2023/10/02 05:24:15;;;;;;;;;20.67;19.33;;;;;;;;6308245;22;45183;-72
2023/10/02 05:26:44;;;;;;;;;30.00;25.33;;;;;;;;6308707;22;45532;-70
2023/10/02 05:29:12;;;;;;;;;24.67;21.33;;;;;;;;6308528;22;45132;-70
2023/10/02 05:31:40;;;;;;;;;28.33;20.67;;;;;;;;6280204;22;46879;-71
2023/10/02 05:34:29;;;;;;;;;25.67;23.00;;;;;;;;6280308;22;45222;-71
2023/10/02 05:39:39;;;;;;;;;23.00;18.00;;;;;;;;6307864;22;45337;-70
2023/10/02 05:42:13;;;;;;;;;23.33;15.67;;;;;;;;6308455;22;45196;-70
2023/10/02 05:44:38;;;;;;;;;26.33;20.33;;;;;;;;6308488;22;45307;-70
2023/10/02 05:47:07;;;;;;;;;24.00;20.67;;;;;;;;6281179;22;45279;-71
2023/10/02 05:49:32;;;;;;;;;18.33;15.00;;;;;;;;6307211;22;45485;-71
2023/10/02 05:52:00;;;;;;;;;21.33;19.67;;;;;;;;6279827;22;45478;-71
2023/10/02 05:54:26;;;;;;;;;23.00;22.33;;;;;;;;6308472;22;45322;-71
2023/10/02 05:57:08;;;;;;;;;20.67;17.67;;;;;;;;6308671;22;44765;-72
2023/10/02 05:59:47;;;;;;;;;21.67;17.00;;;;;;;;6279641;22;46511;-72
2023/10/02 06:02:13;;;;;;;;;29.00;23.00;;;;;;;;6308564;22;46340;-72
2023/10/02 06:04:48;;;;;;;;;22.00;19.33;;;;;;;;6307993;22;45266;-72
2023/10/02 06:10:07;;;;;;;;;20.67;20.67;;;;;;;;6307652;22;45153;-71
2023/10/02 06:12:32;;;;;;;;;25.00;21.00;;;;;;;;6308364;22;45332;-72
2023/10/02 06:15:03;;;;;;;;;20.33;18.00;;;;;;;;6279546;22;45197;-72
2023/10/02 06:17:32;;;;;;;;;30.67;21.67;;;;;;;;6280934;22;45318;-72
2023/10/02 06:19:57;;;;;;;;;24.33;21.67;;;;;;;;6308028;22;45259;-72
2023/10/02 06:22:22;;;;;;;;;23.33;16.67;;;;;;;;6280662;22;45435;-72
2023/10/02 06:24:48;;;;;;;;;17.33;13.00;;;;;;;;6308955;22;45085;-72
2023/10/02 06:27:17;;;;;;;;;25.67;19.33;;;;;;;;6309995;22;45162;-72
2023/10/02 06:29:47;;;;;;;;;22.33;17.67;;;;;;;;6309363;22;45322;-72
2023/10/02 06:32:19;;;;;;;;;24.00;17.00;;;;;;;;6309762;22;45693;-72
2023/10/02 06:34:45;;;;;;;;;26.67;22.00;;;;;;;;6309591;22;45244;-72
2023/10/02 06:37:13;;;;;;;;;27.67;23.00;;;;;;;;6309863;22;45239;-72
2023/10/02 06:39:43;;;;;;;;;21.33;20.33;;;;;;;;6280861;22;45868;-72
2023/10/02 06:42:09;;;;;;;;;30.67;23.33;;;;;;;;6309511;22;46329;-72
2023/10/02 06:44:42;;;;;;;;;25.33;22.33;;;;;;;;6280894;22;45272;-72
2023/10/02 06:47:13;;;;;;;;;35.00;25.33;;;;;;;;6310185;22;45253;-73
2023/10/02 06:49:39;;;;;;;;;24.67;21.00;;;;;;;;6281289;22;45838;-72
2023/10/02 06:52:13;;;;;;;;;23.33;20.00;;;;;;;;6309871;22;46553;-72
2023/10/02 06:54:44;;;;;;;;;20.67;20.67;;;;;;;;6309145;22;45165;-72
2023/10/02 06:57:13;;;;;;;;;22.33;21.33;;;;;;;;6309754;22;45252;-72
2023/10/02 06:59:39;;;;;;;;;33.00;26.00;;;;;;;;6309313;22;45159;-72
2023/10/02 07:02:06;;;;;;;;;27.33;25.33;;;;;;;;6309579;22;45232;-72
2023/10/02 07:04:33;;;;;;;;;23.67;22.00;;;;;;;;6308824;22;45215;-72
2023/10/02 07:07:03;;;;;;;;;30.33;26.00;;;;;;;;6309997;22;45358;-72
2023/10/02 07:09:32;;;;;;;;;26.33;23.67;;;;;;;;6280410;22;45374;-72
2023/10/02 07:12:08;;;;;;;;;29.33;25.67;;;;;;;;6309285;22;45379;-72
2023/10/02 07:14:35;;;;;;;;;31.00;23.33;;;;;;;;6309208;22;45240;-72
2023/10/02 07:17:11;;;;;;;;;25.33;22.00;;;;;;;;6309833;22;45183;-72
2023/10/02 07:19:38;;;;;;;;;27.33;24.00;;;;;;;;6309287;22;45168;-72
2023/10/02 07:22:03;;;;;;;;;26.67;21.33;;;;;;;;6309630;22;46394;-72
2023/10/02 07:24:28;;;;;;;;;31.00;23.00;;;;;;;;6281061;22;45231;-71
2023/10/02 07:26:54;;;;;;;;;33.67;27.00;;;;;;;;6310050;22;45231;-72
2023/10/02 07:29:19;;;;;;;;;27.00;23.67;;;;;;;;6281238;22;46346;-74
2023/10/02 07:31:45;;;;;;;;;26.33;24.00;;;;;;;;6281340;22;46573;-72
2023/10/02 07:34:11;;;;;;;;;30.67;25.00;;;;;;;;6309659;22;45246;-71
2023/10/02 07:36:44;;;;;;;;;26.00;24.67;;;;;;;;6309700;22;45236;-72
2023/10/02 07:39:35;;;;;;;;;26.33;21.33;;;;;;;;6309131;22;45219;-72
2023/10/02 07:42:00;;;;;;;;;27.67;22.33;;;;;;;;6308570;22;46144;-72
2023/10/02 07:44:36;;;;;;;;;30.33;23.33;;;;;;;;6308757;22;45313;-72
2023/10/02 07:47:08;;;;;;;;;32.33;24.67;;;;;;;;6309846;22;45219;-72
2023/10/02 07:49:34;;;;;;;;;27.00;23.67;;;;;;;;6309197;22;45406;-72
2023/10/02 07:51:59;;;;;;;;;15.67;15.67;;;;;;;;6309679;22;45296;-72
2023/10/02 07:54:41;;;;;;;;;29.67;26.00;;;;;;;;6308967;22;45301;-72
2023/10/02 07:57:10;;;;;;;;;25.67;25.67;;;;;;;;6309954;22;45152;-72
2023/10/02 07:59:36;;;;;;;;;25.33;22.33;;;;;;;;6308861;22;45207;-72
2023/10/02 08:02:21;;;;;;;;;27.67;22.00;;;;;;;;6309336;22;45393;-72
2023/10/02 08:04:47;;;;;;;;;28.00;24.00;;;;;;;;6308880;22;45361;-72
2023/10/02 08:07:12;;;;;;;;;24.67;21.67;;;;;;;;6309734;22;45251;-72
2023/10/02 08:09:38;;;;;;;;;28.33;21.00;;;;;;;;6308583;22;45287;-72
2023/10/02 08:12:04;;;;;;;;;31.00;25.33;;;;;;;;6309740;22;45394;-72
2023/10/02 08:14:40;;;;;;;;;29.33;22.00;;;;;;;;6280564;22;45472;-72
2023/10/02 08:20:29;;;;;;;;;23.67;21.33;;;;;;;;6309133;22;45164;-71
2023/10/02 08:22:44;;;;;;;;;28.00;22.00;;;;;;;;6304099;22;46489;-72
2023/10/02 08:25:13;;;;;;;;;29.00;22.67;;;;;;;;6309042;22;45430;-72
2023/10/02 08:27:39;;;;;;;;;31.33;25.33;;;;;;;;6309252;22;45317;-73
2023/10/02 08:30:18;;;;;;;;;26.00;21.00;;;;;;;;6309156;22;45230;-73
2023/10/02 08:32:44;;;;;;;;;29.67;25.67;;;;;;;;6309235;22;45383;-72
2023/10/02 08:35:13;;;;;;;;;24.67;22.00;;;;;;;;6309182;22;45129;-72
2023/10/02 08:37:39;;;;;;;;;30.33;24.67;;;;;;;;6281071;22;44653;-72
2023/10/02 08:40:07;;;;;;;;;18.00;17.00;;;;;;;;6308779;22;45298;-72
2023/10/02 08:42:32;;;;;;;;;33.00;24.67;;;;;;;;6309386;22;45394;-72
2023/10/02 08:45:00;;;;;;;;;25.00;18.67;;;;;;;;6308641;22;45217;-72
2023/10/02 08:47:25;;;;;;;;;27.00;23.00;;;;;;;;6281266;22;45113;-72
2023/10/02 08:50:03;;;;;;;;;28.33;23.33;;;;;;;;6310517;22;45228;-72
2023/10/02 08:52:38;;;;;;;;;30.33;21.67;;;;;;;;6310775;22;46269;-72
2023/10/02 08:55:33;;;;;;;;;28.33;18.67;;;;;;;;6310205;22;45411;-72
2023/10/02 08:58:15;;;;;;;;;32.67;25.00;;;;;;;;6309803;22;45224;-72
2023/10/02 09:00:41;;;;;;;;;26.67;22.00;;;;;;;;6309006;22;45252;-72
2023/10/02 09:03:11;;;;;;;;;26.67;23.00;;;;;;;;6281256;22;47194;-72
2023/10/02 09:05:49;;;;;;;;;26.33;23.33;;;;;;;;6308852;22;45255;-72
2023/10/02 09:08:15;;;;;;;;;24.67;24.00;;;;;;;;6309547;22;45110;-72
2023/10/02 09:10:58;;;;;;;;;27.33;24.00;;;;;;;;6307948;22;45106;-72
2023/10/02 09:13:24;;;;;;;;;27.00;23.00;;;;;;;;6279816;22;45349;-72
2023/10/02 09:15:53;;;;;;;;;21.33;18.33;;;;;;;;6308387;22;45310;-72
2023/10/02 09:21:23;;;;;;;;;18.33;16.33;;;;;;;;6309038;22;45236;-73
2023/10/02 09:23:51;;;;;;;;;27.33;22.00;;;;;;;;6303071;22;46152;-72
2023/10/02 09:26:17;;;;;;;;;19.00;19.00;;;;;;;;6280050;22;45489;-72
2023/10/02 09:28:56;;;;;;;;;24.00;20.33;;;;;;;;6309106;22;45216;-72
2023/10/02 09:31:24;;;;;;;;;30.67;24.00;;;;;;;;6279640;22;46055;-73
2023/10/02 09:33:49;;;;;;;;;26.67;23.33;;;;;;;;6280387;22;47207;-72
2023/10/02 09:36:15;;;;;;;;;25.33;19.67;;;;;;;;6308681;22;45260;-72
2023/10/02 09:38:42;;;;;;;;;24.67;22.00;;;;;;;;6308842;22;45416;-72
2023/10/02 09:41:15;;;;;;;;;23.25;20.00;;;;;;;;6308278;22;45370;-72
2023/10/02 09:43:41;;;;;;;;;24.00;19.33;;;;;;;;6308515;22;46073;-72
2023/10/02 09:46:15;;;;;;;;;24.33;22.00;;;;;;;;6306806;22;45486;-72
2023/10/02 09:51:17;;;;;;;;;23.25;21.50;;;;;;;;6305129;22;45236;-72
2023/10/02 09:54:02;;;;;;;;;23.50;21.00;;;;;;;;6308385;22;45243;-72
2023/10/02 09:56:34;;;;;;;;;28.33;22.67;;;;;;;;6308497;22;45253;-72
2023/10/02 09:59:21;;;;;;;;;27.00;23.00;;;;;;;;6309961;22;45263;-72
2023/10/02 10:02:08;;;;;;;;;24.75;20.75;;;;;;;;6308583;22;45700;-73
2023/10/02 10:05:00;;;;;;;;;25.00;20.00;;;;;;;;6281548;22;47158;-72
2023/10/02 10:07:46;;;;;;;;;25.00;20.25;;;;;;;;6309999;22;45239;-72
2023/10/02 10:10:27;;;;;;;;;25.50;21.75;;;;;;;;6308771;22;45305;-73
2023/10/02 10:12:55;;;;;;;;;29.75;24.00;;;;;;;;6309605;22;45394;-73
2023/10/02 10:15:25;;;;;;;;;23.00;21.75;;;;;;;;6309556;22;46495;-73
2023/10/02 10:17:50;;;;;;;;;27.00;25.25;;;;;;;;6309459;22;45176;-73
2023/10/02 10:20:18;;;;;;;;;38.67;31.67;;;;;;;;6281229;22;45199;-72
2023/10/02 10:22:56;;;;;;;;;31.75;26.75;;;;;;;;6309681;22;45373;-72
2023/10/02 10:28:00;;;;;;;;;35.60;30.40;;;;;;;;6310003;22;45406;-72
2023/10/02 10:30:31;;;;;;;;;25.75;18.50;;;;;;;;6309727;22;45227;-72
2023/10/02 10:35:34;;;;;;;;;24.50;21.75;;;;;;;;6309029;22;45180;-72
2023/10/02 10:38:03;;;;;;;;;29.50;27.50;;;;;;;;6310014;22;45248;-72
2023/10/02 10:41:23;;;;;;;;;24.00;20.00;;;;;;;;6310419;22;45189;-72
2023/10/02 10:43:44;;;;;;;;;26.50;24.25;;;;;;;;6292645;22;45273;-71
2023/10/02 10:46:13;;;;;;;;;26.00;19.50;;;;;;;;6309350;22;45594;-72
2023/10/02 10:48:40;;;;;;;;;23.20;20.40;;;;;;;;6309279;22;45161;-72
2023/10/02 10:51:20;;;;;;;;;25.25;22.00;;;;;;;;6309820;22;45257;-72
2023/10/02 10:53:47;;;;;;;;;25.00;22.25;;;;;;;;6308934;22;45294;-73
2023/10/02 10:56:18;;;;;;;;;20.75;18.50;;;;;;;;6309117;22;46287;-73
2023/10/02 10:58:44;;;;;;;;;27.00;20.80;;;;;;;;6281318;22;45379;-73
2023/10/02 11:01:16;;;;;;;;;25.50;21.00;;;;;;;;6310037;22;45182;-72
2023/10/02 11:03:41;;;;;;;;;24.00;20.00;;;;;;;;6280997;22;46021;-70
2023/10/02 11:06:08;;;;;;;;;26.00;20.25;;;;;;;;6309477;22;45180;-72
2023/10/02 11:08:37;;;;;;;;;26.00;21.80;;;;;;;;6309239;22;45258;-70
2023/10/02 11:11:11;;;;;;;;;23.50;20.75;;;;;;;;6279739;22;45421;-70
2023/10/02 11:13:59;;;;;;;;;19.75;18.25;;;;;;;;6309427;22;45306;-71
2023/10/02 11:16:31;;;;;;;;;23.80;19.40;;;;;;;;6308794;22;45470;-70
2023/10/02 11:19:10;;;;;;;;;23.40;18.80;;;;;;;;6309603;22;45321;-70
2023/10/02 11:21:45;;;;;;;;;23.60;20.60;;;;;;;;6281706;22;45282;-71
2023/10/02 11:24:22;;;;;;;;;21.60;19.00;;;;;;;;6309046;22;45264;-71
2023/10/02 11:26:48;;;;;;;;;30.25;19.50;;;;;;;;6309149;22;45593;-70
2023/10/02 11:29:22;;;;;;;;;27.00;22.25;;;;;;;;6308926;22;45310;-71
2023/10/02 11:32:02;;;;;;;;;22.80;21.20;;;;;;;;6309736;22;45240;-70
2023/10/02 11:34:41;;;;;;;;;23.40;18.60;;;;;;;;6309419;22;45425;-71
2023/10/02 11:37:11;;;;;;;;;22.00;20.00;;;;;;;;6281785;22;46736;-71
2023/10/02 11:39:36;;;;;;;;;22.60;19.40;;;;;;;;6309196;22;45291;-71
2023/10/02 11:42:04;;;;;;;;;26.75;24.25;;;;;;;;6309773;22;45247;-71
2023/10/02 11:44:29;;;;;;;;;28.40;22.20;;;;;;;;6309304;22;45328;-71
2023/10/02 11:46:55;;;;;;;;;29.00;20.75;;;;;;;;6309709;22;45445;-71
2023/10/02 11:49:20;;;;;;;;;23.75;21.50;;;;;;;;6309309;22;45354;-71
2023/10/02 11:51:45;;;;;;;;;25.50;21.75;;;;;;;;6309985;22;45160;-71
2023/10/02 11:54:11;;;;;;;;;28.50;19.50;;;;;;;;6308980;22;45093;-71
2023/10/02 11:56:38;;;;;;;;;28.80;19.00;;;;;;;;6309468;22;45389;-71
2023/10/02 11:59:03;;;;;;;;;28.40;20.40;;;;;;;;6309367;22;45256;-71
2023/10/02 12:01:29;;;;;;;;;21.50;17.25;;;;;;;;6310071;22;45362;-71
2023/10/02 12:03:57;;;;;;;;;22.50;16.75;;;;;;;;6309756;22;45459;-72
2023/10/02 12:06:23;;;;;;;;;22.80;17.60;;;;;;;;6309348;22;45477;-72
2023/10/02 12:08:50;;;;;;;;;24.00;18.40;;;;;;;;6308462;22;45193;-71
2023/10/02 12:11:15;;;;;;;;;18.80;16.20;;;;;;;;6309008;22;45163;-71
2023/10/02 12:13:42;;;;;;;;;25.75;21.75;;;;;;;;6281294;22;45177;-71
2023/10/02 12:16:11;;;;;;;;;24.00;21.00;;;;;;;;6309382;22;46139;-71
2023/10/02 12:18:36;;;;;;;;;23.80;20.40;;;;;;;;6309655;22;45305;-71
2023/10/02 12:21:02;;;;;;;;;23.25;22.00;;;;;;;;6309015;22;45426;-72
2023/10/02 12:23:28;;;;;;;;;18.25;15.50;;;;;;;;6309573;22;45541;-71
2023/10/02 12:25:55;;;;;;;;;23.60;18.60;;;;;;;;6308806;22;45550;-72
2023/10/02 12:28:21;;;;;;;;;14.00;11.80;;;;;;;;6309201;22;45164;-71
2023/10/02 12:30:46;;;;;;;;;21.25;17.25;;;;;;;;6309495;22;45215;-71
2023/10/02 12:33:14;;;;;;;;;20.75;20.25;;;;;;;;6309525;22;45234;-71
2023/10/02 12:35:40;;;;;;;;;16.00;15.40;;;;;;;;6278948;22;47454;-71
2023/10/02 12:38:07;;;;;;;;;21.25;18.50;;;;;;;;6308995;22;45232;-71
2023/10/02 12:40:34;;;;;;;;;22.40;17.60;;;;;;;;6308933;22;45259;-71
2023/10/02 12:43:00;;;;;;;;;23.40;18.80;;;;;;;;6309150;22;45425;-71
2023/10/02 12:45:26;;;;;;;;;16.80;15.40;;;;;;;;6308768;22;45200;-71
2023/10/02 12:47:52;;;;;;;;;19.50;16.00;;;;;;;;6308901;22;45197;-71
2023/10/02 12:50:18;;;;;;;;;22.20;19.60;;;;;;;;6281087;22;45177;-71
2023/10/02 12:52:43;;;;;;;;;16.00;15.00;;;;;;;;6309448;22;45176;-71
2023/10/02 12:55:09;;;;;;;;;19.25;18.25;;;;;;;;6308360;22;45363;-71
2023/10/02 12:57:36;;;;;;;;;24.25;18.75;;;;;;;;6309298;22;45258;-72
2023/10/02 13:00:02;;;;;;;;;20.00;16.00;;;;;;;;6280721;22;45279;-71
2023/10/02 13:02:28;;;;;;;;;24.25;17.25;;;;;;;;6309311;22;45259;-72
2023/10/02 13:04:54;;;;;;;;;19.50;16.00;;;;;;;;6309152;22;45548;-71
2023/10/02 13:07:20;;;;;;;;;17.60;16.80;;;;;;;;6309181;22;45253;-71
2023/10/02 13:09:46;;;;;;;;;18.60;16.40;;;;;;;;6279777;22;45253;-71
2023/10/02 13:12:11;;;;;;;;;15.75;15.25;;;;;;;;6308685;22;45412;-73
2023/10/02 13:14:37;;;;;;;;;19.00;15.75;;;;;;;;6280767;22;46189;-72
2023/10/02 13:17:03;;;;;;;;;19.75;18.50;;;;;;;;6308852;22;45078;-72
2023/10/02 13:19:28;;;;;;;;;19.25;17.00;;;;;;;;6308928;22;45111;-72
2023/10/02 13:21:53;;;;;;;;;17.00;14.75;;;;;;;;6309253;22;45162;-73
2023/10/02 13:24:23;;;;;;;;;21.50;16.50;;;;;;;;6280752;22;45628;-72
2023/10/02 13:26:48;;;;;;;;;24.00;20.00;;;;;;;;6308745;22;45343;-72
2023/10/02 13:29:14;;;;;;;;;22.25;19.50;;;;;;;;6308551;22;45557;-72
2023/10/02 13:31:39;;;;;;;;;22.25;19.75;;;;;;;;6308779;22;45433;-71
2023/10/02 13:34:07;;;;;;;;;23.25;20.00;;;;;;;;6308704;22;45399;-72
2023/10/02 13:36:33;;;;;;;;;21.40;18.80;;;;;;;;6309083;22;45181;-72
2023/10/02 13:38:59;;;;;;;;;18.60;16.40;;;;;;;;6308679;22;45153;-72
2023/10/02 13:41:25;;;;;;;;;23.00;18.20;;;;;;;;6281053;22;46664;-72
2023/10/02 13:43:55;;;;;;;;;16.60;10.20;;;;;;;;6308744;22;45524;-73
2023/10/02 13:46:20;;;;;;;;;19.00;16.80;;;;;;;;6309516;22;45154;-72
2023/10/02 13:48:47;;;;;;;;;26.00;20.25;;;;;;;;6309209;22;45250;-73
2023/10/02 13:51:13;;;;;;;;;25.60;17.40;;;;;;;;6310119;22;45590;-72
2023/10/02 13:53:40;;;;;;;;;20.80;16.40;;;;;;;;6280734;22;47154;-71
2023/10/02 13:56:09;;;;;;;;;18.40;17.20;;;;;;;;6306221;22;45290;-72
2023/10/02 13:58:37;;;;;;;;;21.20;16.20;;;;;;;;6308786;22;45219;-72
2023/10/02 14:01:05;;;;;;;;;18.60;17.60;;;;;;;;6280588;22;46940;-72
2023/10/02 14:03:31;;;;;;;;;22.60;18.80;;;;;;;;6280844;22;47877;-72
2023/10/02 14:05:57;;;;;;;;;16.40;14.20;;;;;;;;6308190;22;45216;-72
2023/10/02 14:08:22;;;;;;;;;21.00;18.00;;;;;;;;6309150;22;45313;-72
2023/10/02 14:10:47;;;;;;;;;22.00;18.00;;;;;;;;6307956;22;45280;-72
2023/10/02 14:13:13;;;;;;;;;27.50;22.00;;;;;;;;6308780;22;45389;-72
2023/10/02 14:15:39;;;;;;;;;18.50;17.00;;;;;;;;6308110;22;45271;-72
2023/10/02 14:18:04;;;;;;;;;21.20;18.20;;;;;;;;6308586;22;45173;-72
2023/10/02 14:20:30;;;;;;;;;14.00;12.25;;;;;;;;6279121;22;45983;-71
2023/10/02 14:22:55;;;;;;;;;18.50;16.25;;;;;;;;6308633;22;46397;-72
2023/10/02 14:25:26;;;;;;;;;19.75;18.75;;;;;;;;6307880;22;45197;-73
2023/10/02 14:27:52;;;;;;;;;19.00;16.80;;;;;;;;6308729;22;45327;-72
2023/10/02 14:30:18;;;;;;;;;15.50;12.75;;;;;;;;6308147;22;45216;-72
2023/10/02 14:32:46;;;;;;;;;17.25;14.25;;;;;;;;6308630;22;46454;-72
2023/10/02 14:35:18;;;;;;;;;22.40;17.80;;;;;;;;6308236;22;45179;-72
2023/10/02 14:37:43;;;;;;;;;20.00;17.00;;;;;;;;6308434;22;45309;-73
2023/10/02 14:40:16;;;;;;;;;20.50;17.50;;;;;;;;6308012;22;45453;-73
2023/10/02 14:42:41;;;;;;;;;17.00;14.20;;;;;;;;6308282;22;46344;-72
2023/10/02 14:45:06;;;;;;;;;19.25;14.25;;;;;;;;6309708;22;45259;-72
2023/10/02 14:47:31;;;;;;;;;14.00;14.00;;;;;;;;6310098;22;45357;-72
2023/10/02 14:49:58;;;;;;;;;14.50;14.50;;;;;;;;6309278;22;45202;-74
2023/10/02 14:52:24;;;;;;;;;18.20;15.60;;;;;;;;6309602;22;46263;-72
2023/10/02 14:54:50;;;;;;;;;18.60;15.00;;;;;;;;6280444;22;45198;-72
2023/10/02 14:57:18;;;;;;;;;13.80;13.00;;;;;;;;6282222;22;45216;-72
2023/10/02 14:59:44;;;;;;;;;17.60;16.00;;;;;;;;6281087;22;45957;-71
2023/10/02 15:02:10;;;;;;;;;14.25;12.50;;;;;;;;6309996;22;45281;-72
2023/10/02 15:04:37;;;;;;;;;29.20;22.80;;;;;;;;6309398;22;45302;-71
2023/10/02 15:07:05;;;;;;;;;17.00;15.20;;;;;;;;6309979;22;45251;-72
2023/10/02 15:09:30;;;;;;;;;14.80;13.80;;;;;;;;6280736;22;46033;-72
2023/10/02 15:11:56;;;;;;;;;12.75;11.75;;;;;;;;6309430;22;45545;-72
2023/10/02 15:14:21;;;;;;;;;15.75;14.00;;;;;;;;6309686;22;45149;-72
2023/10/02 15:16:46;;;;;;;;;14.25;10.75;;;;;;;;6310247;22;45149;-72
2023/10/02 15:19:13;;;;;;;;;19.00;17.50;;;;;;;;6309676;22;45767;-72
2023/10/02 15:21:39;;;;;;;;;14.20;14.00;;;;;;;;6309932;22;46178;-73
2023/10/02 15:24:04;;;;;;;;;15.40;12.40;;;;;;;;6308878;22;45282;-73
2023/10/02 15:26:32;;;;;;;;;17.25;13.00;;;;;;;;6310015;22;45420;-72
2023/10/02 15:28:58;;;;;;;;;42.00;33.25;;;;;;;;6309165;22;45452;-73
2023/10/02 15:31:23;;;;;;;;;18.00;14.00;;;;;;;;6281085;22;46922;-73
2023/10/02 15:33:48;;;;;;;;;25.75;20.75;;;;;;;;6309444;22;45214;-73
2023/10/02 15:36:15;;;;;;;;;18.75;17.25;;;;;;;;6308616;22;45272;-73
2023/10/02 15:38:41;;;;;;;;;16.80;14.00;;;;;;;;6308124;22;45176;-72
2023/10/02 15:41:11;;;;;;;;;17.25;14.00;;;;;;;;6309518;22;45424;-73
2023/10/02 15:43:39;;;;;;;;;12.80;11.20;;;;;;;;6309749;22;45193;-73
2023/10/02 15:46:04;;;;;;;;;21.40;15.00;;;;;;;;6309724;22;45335;-73
2023/10/02 15:48:29;;;;;;;;;12.50;12.50;;;;;;;;6309497;22;45200;-73
2023/10/02 15:50:54;;;;;;;;;16.00;13.75;;;;;;;;6309111;22;45240;-73
2023/10/02 15:53:19;;;;;;;;;19.00;13.75;;;;;;;;6281701;22;45188;-73
2023/10/02 15:55:46;;;;;;;;;10.60;9.00;;;;;;;;6309288;22;45224;-73
2023/10/02 15:58:12;;;;;;;;;10.75;10.50;;;;;;;;6309704;22;45410;-73
2023/10/02 16:00:37;;;;;;;;;17.20;14.80;;;;;;;;6307235;22;46259;-72
2023/10/02 16:03:02;;;;;;;;;17.75;14.50;;;;;;;;6309672;22;45200;-72
2023/10/02 16:05:29;;;;;;;;;10.50;10.25;;;;;;;;6309719;22;45191;-73
2023/10/02 16:07:56;;;;;;;;;12.60;12.20;;;;;;;;6309088;22;45302;-73
2023/10/02 16:10:22;;;;;;;;;11.80;11.80;;;;;;;;6308151;22;45279;-72
2023/10/02 16:12:49;;;;;;;;;11.80;11.60;;;;;;;;6309397;22;45245;-72
2023/10/02 16:15:16;;;;;;;;;16.00;12.80;;;;;;;;6281178;22;45279;-72
2023/10/02 16:17:41;;;;;;;;;18.80;15.00;;;;;;;;6281254;22;46916;-72
2023/10/02 16:20:08;;;;;;;;;14.25;12.50;;;;;;;;6281018;22;48468;-72
2023/10/02 16:22:34;;;;;;;;;13.00;12.25;;;;;;;;6309652;22;45082;-72
2023/10/02 16:25:00;;;;;;;;;13.20;10.00;;;;;;;;6309168;22;45223;-72
2023/10/02 16:27:26;;;;;;;;;13.60;11.80;;;;;;;;6309541;22;45248;-72
2023/10/02 16:29:51;;;;;;;;;6.80;3.80;;;;;;;;6280284;22;47561;-72
2023/10/02 16:32:17;;;;;;;;;15.75;11.25;;;;;;;;6309746;22;45207;-72
2023/10/02 16:34:42;;;;;;;;;18.25;15.25;;;;;;;;6309090;22;45246;-73
2023/10/02 16:37:07;;;;;;;;;15.25;12.25;;;;;;;;6309311;22;45424;-72
2023/10/02 16:39:32;;;;;;;;;14.25;12.75;;;;;;;;6308636;22;45321;-72
2023/10/02 16:41:58;;;;;;;;;25.25;21.25;;;;;;;;6307336;22;45334;-72
2023/10/02 16:44:24;;;;;;;;;19.00;14.50;;;;;;;;6308996;22;45657;-72
2023/10/02 16:46:49;;;;;;;;;16.60;15.20;;;;;;;;6309294;22;45635;-72
2023/10/02 16:49:14;;;;;;;;;14.25;11.00;;;;;;;;6276601;22;47984;-73
2023/10/02 16:51:41;;;;;;;;;16.25;11.75;;;;;;;;6309329;22;45184;-72
2023/10/02 16:54:07;;;;;;;;;14.20;10.40;;;;;;;;6280864;22;45196;-72
2023/10/02 16:56:33;;;;;;;;;15.20;12.00;;;;;;;;6309277;22;45402;-73
2023/10/02 16:58:58;;;;;;;;;15.75;12.00;;;;;;;;6280079;22;46668;-72
2023/10/02 17:01:23;;;;;;;;;10.00;9.50;;;;;;;;6309274;22;45157;-72
2023/10/02 17:03:50;;;;;;;;;16.00;13.25;;;;;;;;6308353;22;45412;-73
2023/10/02 17:06:15;;;;;;;;;15.25;12.25;;;;;;;;6280622;22;45575;-73
2023/10/02 17:08:41;;;;;;;;;15.00;13.50;;;;;;;;6280206;22;47059;-73
2023/10/02 17:11:13;;;;;;;;;19.00;16.75;;;;;;;;6307762;22;45204;-73
2023/10/02 17:13:40;;;;;;;;;18.25;12.75;;;;;;;;6308797;22;45277;-73
2023/10/02 17:16:06;;;;;;;;;14.75;12.00;;;;;;;;6280436;22;46688;-73
2023/10/02 17:18:31;;;;;;;;;17.00;14.25;;;;;;;;6308917;22;46168;-72
2023/10/02 17:20:58;;;;;;;;;11.50;8.50;;;;;;;;6280851;22;45281;-72
2023/10/02 17:23:24;;;;;;;;;13.75;11.25;;;;;;;;6308715;22;45345;-71
2023/10/02 17:25:49;;;;;;;;;15.25;13.50;;;;;;;;6308394;22;45191;-71
2023/10/02 17:28:14;;;;;;;;;13.25;13.00;;;;;;;;6309230;22;46105;-71
2023/10/02 17:30:39;;;;;;;;;17.75;17.75;;;;;;;;6280618;22;45320;-71
2023/10/02 17:33:05;;;;;;;;;18.00;18.00;;;;;;;;6309087;22;45227;-71
2023/10/02 17:35:30;;;;;;;;;12.75;12.50;;;;;;;;6280929;22;46023;-71
2023/10/02 17:37:55;;;;;;;;;13.25;12.25;;;;;;;;6309023;22;45454;-71
2023/10/02 17:40:22;;;;;;;;;13.50;12.00;;;;;;;;6308443;22;45232;-71
2023/10/02 17:42:48;;;;;;;;;15.00;13.75;;;;;;;;6309236;22;45135;-71
2023/10/02 17:45:13;;;;;;;;;22.00;15.00;;;;;;;;6308536;22;45449;-71
2023/10/02 17:47:39;;;;;;;;;19.50;17.25;;;;;;;;6308973;22;46455;-72
2023/10/02 17:50:06;;;;;;;;;14.50;12.50;;;;;;;;6308168;22;45251;-71
2023/10/02 17:52:31;;;;;;;;;18.75;14.00;;;;;;;;6308892;22;45383;-71
2023/10/02 17:54:57;;;;;;;;;10.25;10.25;;;;;;;;6279906;22;45264;-72
2023/10/02 17:57:23;;;;;;;;;14.75;14.75;;;;;;;;6309014;22;45408;-71
2023/10/02 17:59:51;;;;;;;;;22.75;15.50;;;;;;;;6308217;22;45264;-71
2023/10/02 18:02:16;;;;;;;;;17.75;13.25;;;;;;;;6309044;22;45141;-73
2023/10/02 18:04:42;;;;;;;;;12.50;11.75;;;;;;;;6308615;22;45568;-72
2023/10/02 18:07:07;;;;;;;;;11.00;10.50;;;;;;;;6308727;22;45296;-72
2023/10/02 18:09:35;;;;;;;;;16.00;12.00;;;;;;;;6307984;22;45279;-73
2023/10/02 18:12:00;;;;;;;;;16.00;12.75;;;;;;;;6308903;22;45197;-72
2023/10/02 18:14:25;;;;;;;;;14.50;11.75;;;;;;;;6308422;22;45274;-72
2023/10/02 18:16:52;;;;;;;;;13.50;13.00;;;;;;;;6308383;22;46616;-73
2023/10/02 18:19:17;;;;;;;;;11.00;7.75;;;;;;;;6309625;22;45231;-73
2023/10/02 18:21:46;;;;;;;;;21.00;17.00;;;;;;;;6310205;22;45192;-73
2023/10/02 18:24:11;;;;;;;;;16.75;13.00;;;;;;;;6310150;22;45212;-72
2023/10/02 18:26:37;;;;;;;;;18.75;16.50;;;;;;;;6309709;22;46029;-72
2023/10/02 18:29:02;;;;;;;;;11.25;7.25;;;;;;;;6309971;22;45228;-72
2023/10/02 18:31:28;;;;;;;;;20.75;17.00;;;;;;;;6310080;22;45239;-72
2023/10/02 18:33:53;;;;;;;;;9.00;7.75;;;;;;;;6309763;22;45168;-72
2023/10/02 18:36:18;;;;;;;;;12.25;10.50;;;;;;;;6309627;22;46205;-72
2023/10/02 18:38:44;;;;;;;;;17.75;13.75;;;;;;;;6309757;22;45225;-72
2023/10/02 18:41:12;;;;;;;;;10.00;10.00;;;;;;;;6309923;22;45302;-73
2023/10/02 18:43:38;;;;;;;;;10.25;8.75;;;;;;;;6309663;22;45435;-72
2023/10/02 18:46:03;;;;;;;;;10.00;10.00;;;;;;;;6308816;22;46617;-72
2023/10/02 18:48:28;;;;;;;;;19.00;13.00;;;;;;;;6282035;22;45251;-72
2023/10/02 18:50:54;;;;;;;;;14.00;11.25;;;;;;;;6281231;22;45424;-73
2023/10/02 18:53:19;;;;;;;;;18.25;14.00;;;;;;;;6281052;22;45941;-72
2023/10/02 18:55:44;;;;;;;;;18.25;13.75;;;;;;;;6309110;22;46210;-73
2023/10/02 18:58:10;;;;;;;;;13.75;13.75;;;;;;;;6281938;22;45884;-73
2023/10/02 19:00:36;;;;;;;;;13.75;11.50;;;;;;;;6281434;22;45215;-73
2023/10/02 19:03:02;;;;;;;;;11.50;11.50;;;;;;;;6282274;22;46306;-73
2023/10/02 19:05:28;;;;;;;;;11.00;8.50;;;;;;;;6309389;22;45285;-73
2023/10/02 19:07:53;;;;;;;;;12.00;10.75;;;;;;;;6310148;22;45168;-73
2023/10/02 19:10:19;;;;;;;;;13.75;10.75;;;;;;;;6309078;22;45252;-73
2023/10/02 19:12:44;;;;;;;;;11.25;10.75;;;;;;;;6309491;22;45228;-73
2023/10/02 19:15:10;;;;;;;;;13.00;9.75;;;;;;;;6309314;22;46575;-73
2023/10/02 19:17:35;;;;;;;;;11.75;9.75;;;;;;;;6281587;22;45383;-73
2023/10/02 19:20:04;;;;;;;;;13.75;11.75;;;;;;;;6309342;22;45271;-73
2023/10/02 19:22:31;;;;;;;;;10.50;8.00;;;;;;;;6309487;22;45242;-72
2023/10/02 19:24:57;;;;;;;;;12.00;10.75;;;;;;;;6308697;22;45382;-72
2023/10/02 19:27:22;;;;;;;;;12.00;10.25;;;;;;;;6310121;22;45082;-73
2023/10/02 19:29:47;;;;;;;;;9.25;9.25;;;;;;;;6309418;22;45397;-72
2023/10/02 19:32:14;;;;;;;;;9.50;9.50;;;;;;;;6309713;22;45447;-72
2023/10/02 19:34:39;;;;;;;;;13.00;10.50;;;;;;;;6281257;22;47034;-73
2023/10/02 19:37:05;;;;;;;;;15.75;10.50;;;;;;;;6309416;22;45211;-73
2023/10/02 19:39:30;;;;;;;;;10.00;10.00;;;;;;;;6309165;22;45293;-73
2023/10/02 19:41:56;;;;;;;;;11.75;10.00;;;;;;;;6309603;22;45224;-73
2023/10/02 19:44:21;;;;;;;;;9.00;9.00;;;;;;;;6280610;22;47626;-73
2023/10/02 19:46:48;;;;;;;;;12.25;11.25;;;;;;;;6309802;22;45279;-73
2023/10/02 19:49:14;;;;;;;;;10.25;8.50;;;;;;;;6309401;22;45338;-73
2023/10/02 19:51:39;;;;;;;;;8.50;8.50;;;;;;;;6309436;22;45619;-73
2023/10/02 19:54:05;;;;;;;;;11.50;9.25;;;;;;;;6308852;22;46410;-73
2023/10/02 19:56:30;;;;;;;;;9.50;9.00;;;;;;;;6310330;22;45152;-73